Allensburg, Ohio
Current Conditions -  °F | °C
As of 12:32 AM on Friday 28 Nov 2014 (Local Time) from KILN Reporting Station
Light Snow Light Snow  
Wind Chill: 17°   Ceiling: 1800
Heat Index: 26°   Visibility: 3mi
Dew Point: 20°   Wind: 9mph
Humidity: 78%   Direction: 310°NW
Pressure: 30.35"   Gusts: NA
Location:  39.1546°N, 83.569°W
Report Text: KILN 280532Z AUTO 31008KT 3SM -SN BKN018 OVC037 M03/M07 A3035 RMK AO2 P0000 T10331067
Loading
Personal Weather Stations






























Interactive Weather Map New forecast layout! Learn more

10-Day Weather Forecast

Advertisements
Track Severe Weather on mobile